sensor_id;sensor_type;location;lat;lon;timestamp;temperature;humidity
23685;DHT22;12020;51.384;6.908;2023-02-28T00:00:35;0.90;99.90
23685;DHT22;12020;51.384;6.908;2023-02-28T00:03:01;0.70;99.90
23685;DHT22;12020;51.384;6.908;2023-02-28T00:05:28;0.70;99.90
23685;DHT22;12020;51.384;6.908;2023-02-28T00:07:54;0.70;99.90
23685;DHT22;12020;51.384;6.908;2023-02-28T00:10:29;0.60;99.90
23685;DHT22;12020;51.384;6.908;2023-02-28T00:12:59;0.60;99.90
23685;DHT22;12020;51.384;6.908;2023-02-28T00:15:25;0.60;99.90
23685;DHT22;12020;51.384;6.908;2023-02-28T00:17:51;0.60;99.90
23685;DHT22;12020;51.384;6.908;2023-02-28T00:20:17;0.50;99.90
23685;DHT22;12020;51.384;6.908;2023-02-28T00:22:48;0.50;99.90
23685;DHT22;12020;51.384;6.908;2023-02-28T00:25:17;0.50;99.90
23685;DHT22;12020;51.384;6.908;2023-02-28T00:27:44;0.50;99.90
23685;DHT22;12020;51.384;6.908;2023-02-28T00:30:12;0.60;99.90
23685;DHT22;12020;51.384;6.908;2023-02-28T00:32:39;0.60;99.90
23685;DHT22;12020;51.384;6.908;2023-02-28T00:35:06;0.70;99.90
23685;DHT22;12020;51.384;6.908;2023-02-28T00:37:31;0.70;99.90
23685;DHT22;12020;51.384;6.908;2023-02-28T00:39:57;0.80;99.90
23685;DHT22;12020;51.384;6.908;2023-02-28T00:42:23;0.80;99.90
23685;DHT22;12020;51.384;6.908;2023-02-28T00:44:49;1.10;99.90
23685;DHT22;12020;51.384;6.908;2023-02-28T00:47:15;0.90;99.90
23685;DHT22;12020;51.384;6.908;2023-02-28T00:49:41;1.00;99.90
23685;DHT22;12020;51.384;6.908;2023-02-28T00:52:07;1.00;99.90
23685;DHT22;12020;51.384;6.908;2023-02-28T00:54:33;1.00;99.90
23685;DHT22;12020;51.384;6.908;2023-02-28T00:56:59;1.00;99.90
23685;DHT22;12020;51.384;6.908;2023-02-28T00:59:25;1.10;99.90
23685;DHT22;12020;51.384;6.908;2023-02-28T01:01:50;1.10;99.90
23685;DHT22;12020;51.384;6.908;2023-02-28T01:04:16;1.10;99.90
23685;DHT22;12020;51.384;6.908;2023-02-28T01:06:42;1.10;99.90
23685;DHT22;12020;51.384;6.908;2023-02-28T01:09:09;1.10;99.90
23685;DHT22;12020;51.384;6.908;2023-02-28T01:11:35;1.10;99.90
23685;DHT22;12020;51.384;6.908;2023-02-28T01:14:01;1.20;99.90
23685;DHT22;12020;51.384;6.908;2023-02-28T01:16:27;1.20;99.90
23685;DHT22;12020;51.384;6.908;2023-02-28T01:18:53;1.20;99.90
23685;DHT22;12020;51.384;6.908;2023-02-28T01:21:20;1.20;99.90
23685;DHT22;12020;51.384;6.908;2023-02-28T01:23:47;1.20;99.90
23685;DHT22;12020;51.384;6.908;2023-02-28T01:26:21;1.20;99.90
23685;DHT22;12020;51.384;6.908;2023-02-28T01:28:48;1.30;99.90
23685;DHT22;12020;51.384;6.908;2023-02-28T01:31:15;1.40;99.90
23685;DHT22;12020;51.384;6.908;2023-02-28T01:33:41;1.30;99.90
23685;DHT22;12020;51.384;6.908;2023-02-28T01:36:11;1.20;99.90
23685;DHT22;12020;51.384;6.908;2023-02-28T01:38:37;1.20;99.90
23685;DHT22;12020;51.384;6.908;2023-02-28T01:41:03;1.10;99.90
23685;DHT22;12020;51.384;6.908;2023-02-28T01:43:56;1.10;99.90
23685;DHT22;12020;51.384;6.908;2023-02-28T01:46:22;1.10;99.90
23685;DHT22;12020;51.384;6.908;2023-02-28T01:51:35;1.10;99.90
23685;DHT22;12020;51.384;6.908;2023-02-28T01:54:07;1.10;99.90
23685;DHT22;12020;51.384;6.908;2023-02-28T01:57:27;1.10;99.90
23685;DHT22;12020;51.384;6.908;2023-02-28T01:59:41;1.10;99.90
23685;DHT22;12020;51.384;6.908;2023-02-28T02:02:12;1.10;99.90
23685;DHT22;12020;51.384;6.908;2023-02-28T02:04:44;1.10;99.90
23685;DHT22;12020;51.384;6.908;2023-02-28T02:07:13;1.00;99.90
23685;DHT22;12020;51.384;6.908;2023-02-28T02:09:39;0.90;99.90
23685;DHT22;12020;51.384;6.908;2023-02-28T02:12:39;0.90;99.90
23685;DHT22;12020;51.384;6.908;2023-02-28T02:15:16;0.80;99.90
23685;DHT22;12020;51.384;6.908;2023-02-28T02:17:45;0.80;99.90
23685;DHT22;12020;51.384;6.908;2023-02-28T02:20:36;0.80;99.90
23685;DHT22;12020;51.384;6.908;2023-02-28T02:26:39;0.60;99.90
23685;DHT22;12020;51.384;6.908;2023-02-28T02:40:16;0.40;99.90
23685;DHT22;12020;51.384;6.908;2023-02-28T02:45:55;0.40;99.90
23685;DHT22;12020;51.384;6.908;2023-02-28T02:48:26;0.40;99.90
23685;DHT22;12020;51.384;6.908;2023-02-28T02:50:55;0.40;99.90
23685;DHT22;12020;51.384;6.908;2023-02-28T02:53:27;0.40;99.90
23685;DHT22;12020;51.384;6.908;2023-02-28T02:55:55;0.50;99.90
23685;DHT22;12020;51.384;6.908;2023-02-28T02:58:26;0.30;99.90
23685;DHT22;12020;51.384;6.908;2023-02-28T03:00:57;0.40;99.90
23685;DHT22;12020;51.384;6.908;2023-02-28T03:03:24;0.60;99.90
23685;DHT22;12020;51.384;6.908;2023-02-28T03:05:58;0.40;99.90
23685;DHT22;12020;51.384;6.908;2023-02-28T03:08:24;0.40;99.90
23685;DHT22;12020;51.384;6.908;2023-02-28T03:11:02;0.30;99.90
23685;DHT22;12020;51.384;6.908;2023-02-28T03:20:00;0.20;99.90
23685;DHT22;12020;51.384;6.908;2023-02-28T03:26:02;0.10;99.90
23685;DHT22;12020;51.384;6.908;2023-02-28T03:29:22;0.00;99.90
23685;DHT22;12020;51.384;6.908;2023-02-28T03:35:20;-0.30;99.90
23685;DHT22;12020;51.384;6.908;2023-02-28T03:37:59;-0.30;99.90
23685;DHT22;12020;51.384;6.908;2023-02-28T03:53:59;-0.30;99.90
23685;DHT22;12020;51.384;6.908;2023-02-28T04:06:21;-0.10;99.90
23685;DHT22;12020;51.384;6.908;2023-02-28T04:08:47;-0.10;99.90
23685;DHT22;12020;51.384;6.908;2023-02-28T04:14:37;-0.30;99.90
23685;DHT22;12020;51.384;6.908;2023-02-28T04:20:27;-0.40;99.90
23685;DHT22;12020;51.384;6.908;2023-02-28T04:22:53;-0.50;99.90
23685;DHT22;12020;51.384;6.908;2023-02-28T04:38:02;-0.70;99.90
23685;DHT22;12020;51.384;6.908;2023-02-28T04:40:29;-0.80;99.90
23685;DHT22;12020;51.384;6.908;2023-02-28T04:53:00;-0.80;99.90
23685;DHT22;12020;51.384;6.908;2023-02-28T04:58:36;-0.90;99.90
23685;DHT22;12020;51.384;6.908;2023-02-28T05:01:14;-0.90;99.90
23685;DHT22;12020;51.384;6.908;2023-02-28T05:03:41;-0.90;99.90
23685;DHT22;12020;51.384;6.908;2023-02-28T05:06:10;-1.00;99.90
23685;DHT22;12020;51.384;6.908;2023-02-28T05:17:56;-1.10;99.90
23685;DHT22;12020;51.384;6.908;2023-02-28T05:23:46;-1.20;99.90
23685;DHT22;12020;51.384;6.908;2023-02-28T05:38:48;-1.20;99.90
23685;DHT22;12020;51.384;6.908;2023-02-28T05:53:02;-1.30;99.90
23685;DHT22;12020;51.384;6.908;2023-02-28T05:55:28;-1.30;99.90
23685;DHT22;12020;51.384;6.908;2023-02-28T06:09:21;-1.30;99.90
23685;DHT22;12020;51.384;6.908;2023-02-28T06:11:47;-1.40;99.90
23685;DHT22;12020;51.384;6.908;2023-02-28T06:14:16;-1.20;99.90
23685;DHT22;12020;51.384;6.908;2023-02-28T06:16:42;-1.40;99.90
23685;DHT22;12020;51.384;6.908;2023-02-28T06:19:09;-1.40;99.90
23685;DHT22;12020;51.384;6.908;2023-02-28T06:21:35;-1.40;99.90
23685;DHT22;12020;51.384;6.908;2023-02-28T06:24:02;-1.40;99.90
23685;DHT22;12020;51.384;6.908;2023-02-28T06:26:28;-1.40;99.90
23685;DHT22;12020;51.384;6.908;2023-02-28T06:28:54;-1.40;99.90
23685;DHT22;12020;51.384;6.908;2023-02-28T06:31:20;-1.50;99.90
23685;DHT22;12020;51.384;6.908;2023-02-28T06:33:48;-1.50;99.90
23685;DHT22;12020;51.384;6.908;2023-02-28T06:36:15;-1.50;99.90
23685;DHT22;12020;51.384;6.908;2023-02-28T06:38:45;-1.50;99.90
23685;DHT22;12020;51.384;6.908;2023-02-28T06:41:14;-1.50;99.90
23685;DHT22;12020;51.384;6.908;2023-02-28T06:43:43;-1.40;99.90
23685;DHT22;12020;51.384;6.908;2023-02-28T06:46:13;-1.40;99.90
23685;DHT22;12020;51.384;6.908;2023-02-28T06:48:40;-1.40;99.90
23685;DHT22;12020;51.384;6.908;2023-02-28T06:51:15;-1.40;99.90
23685;DHT22;12020;51.384;6.908;2023-02-28T06:53:43;-1.50;99.90
23685;DHT22;12020;51.384;6.908;2023-02-28T06:56:11;-1.40;99.90
23685;DHT22;12020;51.384;6.908;2023-02-28T06:58:39;-1.40;99.90
23685;DHT22;12020;51.384;6.908;2023-02-28T07:01:06;-1.50;99.90
23685;DHT22;12020;51.384;6.908;2023-02-28T07:03:32;-1.50;99.90
23685;DHT22;12020;51.384;6.908;2023-02-28T07:05:59;-1.50;99.90
23685;DHT22;12020;51.384;6.908;2023-02-28T07:08:25;-1.50;99.90
23685;DHT22;12020;51.384;6.908;2023-02-28T07:10:54;-1.40;99.90
23685;DHT22;12020;51.384;6.908;2023-02-28T07:13:20;-1.10;99.90
23685;DHT22;12020;51.384;6.908;2023-02-28T07:15:57;-1.00;99.90
23685;DHT22;12020;51.384;6.908;2023-02-28T07:18:23;-1.00;99.90
23685;DHT22;12020;51.384;6.908;2023-02-28T07:20:49;-1.10;99.90
23685;DHT22;12020;51.384;6.908;2023-02-28T07:23:15;-1.20;99.90
23685;DHT22;12020;51.384;6.908;2023-02-28T07:25:40;-1.20;99.90
23685;DHT22;12020;51.384;6.908;2023-02-28T07:28:06;-1.30;99.90
23685;DHT22;12020;51.384;6.908;2023-02-28T07:30:32;-1.30;99.90
23685;DHT22;12020;51.384;6.908;2023-02-28T07:32:57;-1.30;99.90
23685;DHT22;12020;51.384;6.908;2023-02-28T07:35:23;-1.30;99.90
23685;DHT22;12020;51.384;6.908;2023-02-28T07:37:49;-1.30;99.90
23685;DHT22;12020;51.384;6.908;2023-02-28T07:40:15;-1.20;99.90
23685;DHT22;12020;51.384;6.908;2023-02-28T07:42:41;-1.20;99.90
23685;DHT22;12020;51.384;6.908;2023-02-28T07:45:08;-1.10;99.90
23685;DHT22;12020;51.384;6.908;2023-02-28T07:47:38;-1.00;99.90
23685;DHT22;12020;51.384;6.908;2023-02-28T07:50:06;-0.90;99.90
23685;DHT22;12020;51.384;6.908;2023-02-28T07:52:32;-0.70;99.90
23685;DHT22;12020;51.384;6.908;2023-02-28T07:54:57;-0.70;99.90
23685;DHT22;12020;51.384;6.908;2023-02-28T07:57:23;-0.60;99.90
23685;DHT22;12020;51.384;6.908;2023-02-28T07:59:49;-0.50;99.90
23685;DHT22;12020;51.384;6.908;2023-02-28T08:02:16;-0.30;99.90
23685;DHT22;12020;51.384;6.908;2023-02-28T08:04:42;-0.30;99.90
23685;DHT22;12020;51.384;6.908;2023-02-28T08:07:08;-0.20;99.90
23685;DHT22;12020;51.384;6.908;2023-02-28T08:09:40;-0.10;99.90
23685;DHT22;12020;51.384;6.908;2023-02-28T08:12:07;0.00;99.90
23685;DHT22;12020;51.384;6.908;2023-02-28T08:14:34;0.10;99.90
23685;DHT22;12020;51.384;6.908;2023-02-28T08:17:00;0.30;99.90
23685;DHT22;12020;51.384;6.908;2023-02-28T08:19:26;0.30;99.90
23685;DHT22;12020;51.384;6.908;2023-02-28T08:21:51;0.50;99.90
23685;DHT22;12020;51.384;6.908;2023-02-28T08:24:17;0.60;99.90
23685;DHT22;12020;51.384;6.908;2023-02-28T08:26:43;1.10;99.90
23685;DHT22;12020;51.384;6.908;2023-02-28T08:29:08;0.70;99.90
23685;DHT22;12020;51.384;6.908;2023-02-28T08:31:34;0.80;99.90
23685;DHT22;12020;51.384;6.908;2023-02-28T08:34:05;0.90;99.90
23685;DHT22;12020;51.384;6.908;2023-02-28T08:36:31;1.10;99.90
23685;DHT22;12020;51.384;6.908;2023-02-28T08:38:57;1.20;99.90
23685;DHT22;12020;51.384;6.908;2023-02-28T08:41:23;1.20;99.90
23685;DHT22;12020;51.384;6.908;2023-02-28T08:43:48;1.50;99.90
23685;DHT22;12020;51.384;6.908;2023-02-28T08:46:14;1.50;99.90
23685;DHT22;12020;51.384;6.908;2023-02-28T08:48:40;1.60;99.90
23685;DHT22;12020;51.384;6.908;2023-02-28T08:51:09;1.70;99.90
23685;DHT22;12020;51.384;6.908;2023-02-28T08:53:38;2.10;99.90
23685;DHT22;12020;51.384;6.908;2023-02-28T08:56:06;2.00;99.90
23685;DHT22;12020;51.384;6.908;2023-02-28T08:58:32;2.10;99.90
23685;DHT22;12020;51.384;6.908;2023-02-28T09:00:57;2.60;99.90
23685;DHT22;12020;51.384;6.908;2023-02-28T09:03:23;2.40;99.90
23685;DHT22;12020;51.384;6.908;2023-02-28T09:05:56;2.60;99.90
23685;DHT22;12020;51.384;6.908;2023-02-28T09:08:26;2.70;99.90
23685;DHT22;12020;51.384;6.908;2023-02-28T09:10:52;2.80;99.90
23685;DHT22;12020;51.384;6.908;2023-02-28T09:13:19;3.00;99.90
23685;DHT22;12020;51.384;6.908;2023-02-28T09:15:45;3.10;99.90
23685;DHT22;12020;51.384;6.908;2023-02-28T09:18:11;3.20;99.90
23685;DHT22;12020;51.384;6.908;2023-02-28T09:20:39;3.40;99.90
23685;DHT22;12020;51.384;6.908;2023-02-28T09:23:09;3.60;99.90
23685;DHT22;12020;51.384;6.908;2023-02-28T09:25:34;3.80;99.90
23685;DHT22;12020;51.384;6.908;2023-02-28T09:28:00;3.80;99.90
23685;DHT22;12020;51.384;6.908;2023-02-28T09:30:26;4.00;99.90
23685;DHT22;12020;51.384;6.908;2023-02-28T09:32:52;4.10;99.90
23685;DHT22;12020;51.384;6.908;2023-02-28T09:35:20;4.10;99.90
23685;DHT22;12020;51.384;6.908;2023-02-28T09:37:50;4.20;99.90
23685;DHT22;12020;51.384;6.908;2023-02-28T09:40:20;4.20;99.90
23685;DHT22;12020;51.384;6.908;2023-02-28T09:42:49;4.30;99.90
23685;DHT22;12020;51.384;6.908;2023-02-28T09:45:34;4.50;99.90
23685;DHT22;12020;51.384;6.908;2023-02-28T09:48:04;4.50;99.90
23685;DHT22;12020;51.384;6.908;2023-02-28T09:50:45;4.50;99.90
23685;DHT22;12020;51.384;6.908;2023-02-28T09:53:30;4.60;99.90
23685;DHT22;12020;51.384;6.908;2023-02-28T09:56:11;4.70;99.90
23685;DHT22;12020;51.384;6.908;2023-02-28T09:58:51;4.90;99.90
23685;DHT22;12020;51.384;6.908;2023-02-28T10:01:36;5.10;99.90
23685;DHT22;12020;51.384;6.908;2023-02-28T10:07:00;5.40;99.90
23685;DHT22;12020;51.384;6.908;2023-02-28T10:09:32;5.40;99.90
23685;DHT22;12020;51.384;6.908;2023-02-28T10:12:03;5.60;99.90
23685;DHT22;12020;51.384;6.908;2023-02-28T10:14:31;5.70;99.90
23685;DHT22;12020;51.384;6.908;2023-02-28T10:17:04;5.90;99.90
23685;DHT22;12020;51.384;6.908;2023-02-28T10:19:53;5.90;99.90
23685;DHT22;12020;51.384;6.908;2023-02-28T10:22:49;6.10;99.90
23685;DHT22;12020;51.384;6.908;2023-02-28T10:25:19;6.30;99.90
23685;DHT22;12020;51.384;6.908;2023-02-28T10:27:45;6.50;99.90
23685;DHT22;12020;51.384;6.908;2023-02-28T10:30:11;6.60;99.90
23685;DHT22;12020;51.384;6.908;2023-02-28T10:32:39;6.70;99.90
23685;DHT22;12020;51.384;6.908;2023-02-28T10:37:44;6.70;99.90
23685;DHT22;12020;51.384;6.908;2023-02-28T10:43:02;6.70;98.50
23685;DHT22;12020;51.384;6.908;2023-02-28T10:45:32;6.80;99.40
23685;DHT22;12020;51.384;6.908;2023-02-28T10:58:55;6.90;96.00
23685;DHT22;12020;51.384;6.908;2023-02-28T11:04:01;7.00;96.00
23685;DHT22;12020;51.384;6.908;2023-02-28T11:06:33;7.10;95.70
23685;DHT22;12020;51.384;6.908;2023-02-28T11:09:03;6.90;95.60
23685;DHT22;12020;51.384;6.908;2023-02-28T11:11:31;6.80;95.40
23685;DHT22;12020;51.384;6.908;2023-02-28T11:14:14;6.70;94.80
23685;DHT22;12020;51.384;6.908;2023-02-28T11:16:42;6.70;94.70
23685;DHT22;12020;51.384;6.908;2023-02-28T11:19:38;6.70;95.00
23685;DHT22;12020;51.384;6.908;2023-02-28T11:22:05;6.70;95.70
23685;DHT22;12020;51.384;6.908;2023-02-28T11:24:36;6.80;95.70
23685;DHT22;12020;51.384;6.908;2023-02-28T11:27:02;6.80;95.80
23685;DHT22;12020;51.384;6.908;2023-02-28T11:29:30;6.80;95.80
23685;DHT22;12020;51.384;6.908;2023-02-28T11:32:13;6.90;95.10
23685;DHT22;12020;51.384;6.908;2023-02-28T11:34:42;6.90;95.30
23685;DHT22;12020;51.384;6.908;2023-02-28T11:37:17;6.90;94.00
23685;DHT22;12020;51.384;6.908;2023-02-28T11:39:44;6.80;94.60
23685;DHT22;12020;51.384;6.908;2023-02-28T11:42:36;6.80;94.70
23685;DHT22;12020;51.384;6.908;2023-02-28T11:47:58;6.80;95.20
23685;DHT22;12020;51.384;6.908;2023-02-28T11:50:47;6.80;96.20
23685;DHT22;12020;51.384;6.908;2023-02-28T11:53:21;6.90;95.80
23685;DHT22;12020;51.384;6.908;2023-02-28T11:56:05;6.90;93.90
23685;DHT22;12020;51.384;6.908;2023-02-28T12:01:36;6.70;94.30
23685;DHT22;12020;51.384;6.908;2023-02-28T12:04:32;6.60;93.40
23685;DHT22;12020;51.384;6.908;2023-02-28T12:10:03;6.40;94.00
23685;DHT22;12020;51.384;6.908;2023-02-28T12:20:53;6.20;94.70
23685;DHT22;12020;51.384;6.908;2023-02-28T12:23:50;6.20;94.90
23685;DHT22;12020;51.384;6.908;2023-02-28T12:29:17;6.20;94.10
23685;DHT22;12020;51.384;6.908;2023-02-28T12:32:06;6.20;94.80
23685;DHT22;12020;51.384;6.908;2023-02-28T12:34:42;6.20;94.90
23685;DHT22;12020;51.384;6.908;2023-02-28T12:39:54;6.10;95.40
23685;DHT22;12020;51.384;6.908;2023-02-28T12:42:27;6.10;95.30
23685;DHT22;12020;51.384;6.908;2023-02-28T12:45:00;6.20;96.10
23685;DHT22;12020;51.384;6.908;2023-02-28T12:47:27;6.10;95.30
23685;DHT22;12020;51.384;6.908;2023-02-28T12:50:05;6.10;96.50
23685;DHT22;12020;51.384;6.908;2023-02-28T12:52:52;6.10;95.40
23685;DHT22;12020;51.384;6.908;2023-02-28T13:09:21;6.00;96.10
23685;DHT22;12020;51.384;6.908;2023-02-28T13:11:54;6.00;96.30
23685;DHT22;12020;51.384;6.908;2023-02-28T13:14:37;6.00;95.70
23685;DHT22;12020;51.384;6.908;2023-02-28T13:17:17;6.00;96.00
23685;DHT22;12020;51.384;6.908;2023-02-28T13:19:55;6.10;96.60
23685;DHT22;12020;51.384;6.908;2023-02-28T13:22:37;6.10;96.20
23685;DHT22;12020;51.384;6.908;2023-02-28T13:28:12;6.00;96.40
23685;DHT22;12020;51.384;6.908;2023-02-28T13:34:04;6.00;97.10
23685;DHT22;12020;51.384;6.908;2023-02-28T13:36:28;6.00;97.20
23685;DHT22;12020;51.384;6.908;2023-02-28T13:38:59;6.00;97.10
23685;DHT22;12020;51.384;6.908;2023-02-28T13:44:22;6.10;97.60
23685;DHT22;12020;51.384;6.908;2023-02-28T14:03:31;6.10;96.30
23685;DHT22;12020;51.384;6.908;2023-02-28T14:08:35;6.10;96.50
23685;DHT22;12020;51.384;6.908;2023-02-28T14:11:08;6.00;96.10
23685;DHT22;12020;51.384;6.908;2023-02-28T14:13:44;5.90;97.60
23685;DHT22;12020;51.384;6.908;2023-02-28T14:16:21;5.80;96.90
23685;DHT22;12020;51.384;6.908;2023-02-28T14:18:55;5.80;97.80
23685;DHT22;12020;51.384;6.908;2023-02-28T14:21:31;5.80;98.50
23685;DHT22;12020;51.384;6.908;2023-02-28T14:29:58;5.90;97.60
23685;DHT22;12020;51.384;6.908;2023-02-28T14:37:42;5.90;98.30
23685;DHT22;12020;51.384;6.908;2023-02-28T14:40:16;6.00;98.30
23685;DHT22;12020;51.384;6.908;2023-02-28T14:42:57;6.00;99.40
23685;DHT22;12020;51.384;6.908;2023-02-28T14:45:23;5.90;98.30
23685;DHT22;12020;51.384;6.908;2023-02-28T14:47:51;5.90;98.60
23685;DHT22;12020;51.384;6.908;2023-02-28T14:50:34;5.90;97.80
23685;DHT22;12020;51.384;6.908;2023-02-28T14:53:01;5.90;98.00
23685;DHT22;12020;51.384;6.908;2023-02-28T14:55:33;5.90;98.30
23685;DHT22;12020;51.384;6.908;2023-02-28T14:58:01;5.90;99.10
23685;DHT22;12020;51.384;6.908;2023-02-28T15:00:39;5.80;99.20
23685;DHT22;12020;51.384;6.908;2023-02-28T15:03:23;5.80;99.90
23685;DHT22;12020;51.384;6.908;2023-02-28T15:05:55;5.80;99.90
23685;DHT22;12020;51.384;6.908;2023-02-28T15:08:21;5.70;99.90
23685;DHT22;12020;51.384;6.908;2023-02-28T15:11:00;5.70;99.90
23685;DHT22;12020;51.384;6.908;2023-02-28T15:13:54;5.70;99.90
23685;DHT22;12020;51.384;6.908;2023-02-28T15:16:22;5.60;99.90
23685;DHT22;12020;51.384;6.908;2023-02-28T15:18:58;5.60;99.90
23685;DHT22;12020;51.384;6.908;2023-02-28T15:21:30;5.50;99.90
23685;DHT22;12020;51.384;6.908;2023-02-28T15:26:28;5.60;99.90
23685;DHT22;12020;51.384;6.908;2023-02-28T15:29:05;5.50;99.90
23685;DHT22;12020;51.384;6.908;2023-02-28T15:31:34;5.50;99.90
23685;DHT22;12020;51.384;6.908;2023-02-28T15:34:06;5.50;99.90
23685;DHT22;12020;51.384;6.908;2023-02-28T15:36:34;5.50;99.90
23685;DHT22;12020;51.384;6.908;2023-02-28T15:39:16;5.50;99.90
23685;DHT22;12020;51.384;6.908;2023-02-28T15:41:43;5.50;99.90
23685;DHT22;12020;51.384;6.908;2023-02-28T15:47:05;5.60;99.90
23685;DHT22;12020;51.384;6.908;2023-02-28T15:49:39;5.60;99.90
23685;DHT22;12020;51.384;6.908;2023-02-28T15:52:05;5.50;99.90
23685;DHT22;12020;51.384;6.908;2023-02-28T15:54:34;5.50;99.90
23685;DHT22;12020;51.384;6.908;2023-02-28T15:57:05;5.40;99.90
23685;DHT22;12020;51.384;6.908;2023-02-28T15:59:35;5.40;99.90
23685;DHT22;12020;51.384;6.908;2023-02-28T16:02:17;5.40;99.90
23685;DHT22;12020;51.384;6.908;2023-02-28T16:07:34;5.40;99.90
23685;DHT22;12020;51.384;6.908;2023-02-28T16:10:01;5.30;99.90
23685;DHT22;12020;51.384;6.908;2023-02-28T16:12:32;5.30;99.90
23685;DHT22;12020;51.384;6.908;2023-02-28T16:15:01;5.30;99.90
23685;DHT22;12020;51.384;6.908;2023-02-28T16:17:38;5.30;99.90
23685;DHT22;12020;51.384;6.908;2023-02-28T16:20:24;5.40;99.90
23685;DHT22;12020;51.384;6.908;2023-02-28T16:22:50;5.30;99.90
23685;DHT22;12020;51.384;6.908;2023-02-28T16:25:19;5.30;99.90
23685;DHT22;12020;51.384;6.908;2023-02-28T16:27:48;5.30;99.90
23685;DHT22;12020;51.384;6.908;2023-02-28T16:30:23;5.40;99.90
23685;DHT22;12020;51.384;6.908;2023-02-28T16:32:50;5.40;99.90
23685;DHT22;12020;51.384;6.908;2023-02-28T16:35:17;5.30;99.90
23685;DHT22;12020;51.384;6.908;2023-02-28T16:37:44;5.40;99.90
23685;DHT22;12020;51.384;6.908;2023-02-28T16:40:16;5.30;99.90
23685;DHT22;12020;51.384;6.908;2023-02-28T16:42:45;5.20;99.90
23685;DHT22;12020;51.384;6.908;2023-02-28T16:45:16;5.20;99.90
23685;DHT22;12020;51.384;6.908;2023-02-28T16:47:45;5.10;99.90
23685;DHT22;12020;51.384;6.908;2023-02-28T16:50:20;5.00;99.90
23685;DHT22;12020;51.384;6.908;2023-02-28T16:52:46;5.00;99.90
23685;DHT22;12020;51.384;6.908;2023-02-28T16:55:14;4.90;99.90
23685;DHT22;12020;51.384;6.908;2023-02-28T16:57:40;4.90;99.90
23685;DHT22;12020;51.384;6.908;2023-02-28T17:00:12;4.90;99.90
23685;DHT22;12020;51.384;6.908;2023-02-28T17:02:40;4.80;99.90
23685;DHT22;12020;51.384;6.908;2023-02-28T17:05:05;4.70;99.90
23685;DHT22;12020;51.384;6.908;2023-02-28T17:07:32;4.70;99.90
23685;DHT22;12020;51.384;6.908;2023-02-28T17:09:57;4.70;99.90
23685;DHT22;12020;51.384;6.908;2023-02-28T17:12:23;4.70;99.90
23685;DHT22;12020;51.384;6.908;2023-02-28T17:14:49;4.70;99.90
23685;DHT22;12020;51.384;6.908;2023-02-28T17:17:20;4.70;99.90
23685;DHT22;12020;51.384;6.908;2023-02-28T17:19:47;4.60;99.90
23685;DHT22;12020;51.384;6.908;2023-02-28T17:22:13;4.60;99.90
23685;DHT22;12020;51.384;6.908;2023-02-28T17:24:39;4.60;99.90
23685;DHT22;12020;51.384;6.908;2023-02-28T17:27:04;4.60;99.90
23685;DHT22;12020;51.384;6.908;2023-02-28T17:29:30;4.50;99.90
23685;DHT22;12020;51.384;6.908;2023-02-28T17:31:59;4.50;99.90
23685;DHT22;12020;51.384;6.908;2023-02-28T17:34:24;4.40;99.90
23685;DHT22;12020;51.384;6.908;2023-02-28T17:36:51;4.40;99.90
23685;DHT22;12020;51.384;6.908;2023-02-28T17:39:18;4.40;99.90
23685;DHT22;12020;51.384;6.908;2023-02-28T17:41:55;4.30;99.90
23685;DHT22;12020;51.384;6.908;2023-02-28T17:44:21;4.30;99.90
23685;DHT22;12020;51.384;6.908;2023-02-28T17:46:48;4.20;99.90
23685;DHT22;12020;51.384;6.908;2023-02-28T17:49:15;4.20;99.90
23685;DHT22;12020;51.384;6.908;2023-02-28T17:51:40;4.20;99.90
23685;DHT22;12020;51.384;6.908;2023-02-28T17:54:06;4.20;99.90
23685;DHT22;12020;51.384;6.908;2023-02-28T17:56:33;4.20;99.90
23685;DHT22;12020;51.384;6.908;2023-02-28T17:58:59;4.10;99.90
23685;DHT22;12020;51.384;6.908;2023-02-28T18:01:25;4.20;99.90
23685;DHT22;12020;51.384;6.908;2023-02-28T18:03:52;4.10;99.90
23685;DHT22;12020;51.384;6.908;2023-02-28T18:06:24;4.00;99.90
23685;DHT22;12020;51.384;6.908;2023-02-28T18:08:55;3.90;99.90
23685;DHT22;12020;51.384;6.908;2023-02-28T18:11:23;3.90;99.90
23685;DHT22;12020;51.384;6.908;2023-02-28T18:13:53;3.80;99.90
23685;DHT22;12020;51.384;6.908;2023-02-28T18:16:21;3.70;99.90
23685;DHT22;12020;51.384;6.908;2023-02-28T18:18:47;3.70;99.90
23685;DHT22;12020;51.384;6.908;2023-02-28T18:21:15;3.60;99.90
23685;DHT22;12020;51.384;6.908;2023-02-28T18:23:44;3.60;99.90
23685;DHT22;12020;51.384;6.908;2023-02-28T18:26:17;3.50;99.90
23685;DHT22;12020;51.384;6.908;2023-02-28T18:28:46;3.50;99.90
23685;DHT22;12020;51.384;6.908;2023-02-28T18:31:15;3.50;99.90
23685;DHT22;12020;51.384;6.908;2023-02-28T18:33:49;3.40;99.90
23685;DHT22;12020;51.384;6.908;2023-02-28T18:36:19;3.40;99.90
23685;DHT22;12020;51.384;6.908;2023-02-28T18:38:47;3.30;99.90
23685;DHT22;12020;51.384;6.908;2023-02-28T18:41:15;3.30;99.90
23685;DHT22;12020;51.384;6.908;2023-02-28T18:43:44;3.30;99.90
23685;DHT22;12020;51.384;6.908;2023-02-28T18:46:15;3.20;99.90
23685;DHT22;12020;51.384;6.908;2023-02-28T18:48:43;3.20;99.90
23685;DHT22;12020;51.384;6.908;2023-02-28T18:53:40;3.00;99.90
23685;DHT22;12020;51.384;6.908;2023-02-28T18:56:09;2.90;99.90
23685;DHT22;12020;51.384;6.908;2023-02-28T18:58:35;2.90;99.90
23685;DHT22;12020;51.384;6.908;2023-02-28T19:01:10;2.90;99.90
23685;DHT22;12020;51.384;6.908;2023-02-28T19:03:37;2.80;99.90
23685;DHT22;12020;51.384;6.908;2023-02-28T19:06:03;2.90;99.90
23685;DHT22;12020;51.384;6.908;2023-02-28T19:08:29;2.80;99.90
23685;DHT22;12020;51.384;6.908;2023-02-28T19:10:57;2.80;99.90
23685;DHT22;12020;51.384;6.908;2023-02-28T19:13:24;2.80;99.90
23685;DHT22;12020;51.384;6.908;2023-02-28T19:16:01;2.70;99.90
23685;DHT22;12020;51.384;6.908;2023-02-28T19:18:28;2.70;99.90
23685;DHT22;12020;51.384;6.908;2023-02-28T19:20:55;2.60;99.90
23685;DHT22;12020;51.384;6.908;2023-02-28T19:23:21;2.60;99.90
23685;DHT22;12020;51.384;6.908;2023-02-28T19:25:51;2.60;99.90
23685;DHT22;12020;51.384;6.908;2023-02-28T19:28:23;2.60;99.90
23685;DHT22;12020;51.384;6.908;2023-02-28T19:30:51;2.60;99.90
23685;DHT22;12020;51.384;6.908;2023-02-28T19:33:18;2.60;99.90
23685;DHT22;12020;51.384;6.908;2023-02-28T19:35:46;2.50;99.90
23685;DHT22;12020;51.384;6.908;2023-02-28T19:38:14;2.50;99.90
23685;DHT22;12020;51.384;6.908;2023-02-28T19:40:42;2.40;99.90
23685;DHT22;12020;51.384;6.908;2023-02-28T19:43:10;2.40;99.90
23685;DHT22;12020;51.384;6.908;2023-02-28T19:45:38;2.40;99.90
23685;DHT22;12020;51.384;6.908;2023-02-28T19:48:04;2.40;99.90
23685;DHT22;12020;51.384;6.908;2023-02-28T19:50:31;2.40;99.90
23685;DHT22;12020;51.384;6.908;2023-02-28T19:52:59;2.90;99.90
23685;DHT22;12020;51.384;6.908;2023-02-28T19:55:28;3.70;99.90
23685;DHT22;12020;51.384;6.908;2023-02-28T19:57:55;4.70;99.90
23685;DHT22;12020;51.384;6.908;2023-02-28T20:00:33;5.60;99.90
23685;DHT22;12020;51.384;6.908;2023-02-28T20:02:59;6.40;99.90
23685;DHT22;12020;51.384;6.908;2023-02-28T20:05:26;7.00;99.90
23685;DHT22;12020;51.384;6.908;2023-02-28T20:07:51;7.40;99.90